sensor_id;sensor_type;location;lat;lon;timestamp;temperature;humidity
16966;DHT22;8599;47.852;12.070;2023-04-16T00:02:11;6.80;99.90
16966;DHT22;8599;47.852;12.070;2023-04-16T00:04:38;6.70;99.90
16966;DHT22;8599;47.852;12.070;2023-04-16T00:07:04;6.80;99.90
16966;DHT22;8599;47.852;12.070;2023-04-16T00:09:31;6.70;99.90
16966;DHT22;8599;47.852;12.070;2023-04-16T00:11:58;6.60;99.90
16966;DHT22;8599;47.852;12.070;2023-04-16T00:14:25;6.70;99.90
16966;DHT22;8599;47.852;12.070;2023-04-16T00:16:53;6.70;99.90
16966;DHT22;8599;47.852;12.070;2023-04-16T00:19:20;6.70;99.90
16966;DHT22;8599;47.852;12.070;2023-04-16T00:21:47;6.70;99.90
16966;DHT22;8599;47.852;12.070;2023-04-16T00:24:14;6.70;99.90
16966;DHT22;8599;47.852;12.070;2023-04-16T00:26:41;6.80;99.90
16966;DHT22;8599;47.852;12.070;2023-04-16T00:29:10;6.70;99.90
16966;DHT22;8599;47.852;12.070;2023-04-16T00:31:37;6.70;99.90
16966;DHT22;8599;47.852;12.070;2023-04-16T00:34:05;6.60;99.90
16966;DHT22;8599;47.852;12.070;2023-04-16T00:36:32;6.60;99.90
16966;DHT22;8599;47.852;12.070;2023-04-16T00:38:58;6.60;99.90
16966;DHT22;8599;47.852;12.070;2023-04-16T00:41:25;6.50;99.90
16966;DHT22;8599;47.852;12.070;2023-04-16T00:43:52;6.50;99.90
16966;DHT22;8599;47.852;12.070;2023-04-16T00:46:21;6.50;99.90
16966;DHT22;8599;47.852;12.070;2023-04-16T00:48:50;6.60;99.90
16966;DHT22;8599;47.852;12.070;2023-04-16T00:51:18;6.50;99.90
16966;DHT22;8599;47.852;12.070;2023-04-16T00:53:46;6.60;99.90
16966;DHT22;8599;47.852;12.070;2023-04-16T00:56:13;6.60;99.90
16966;DHT22;8599;47.852;12.070;2023-04-16T00:58:39;6.70;99.90
16966;DHT22;8599;47.852;12.070;2023-04-16T01:01:06;6.60;99.90
16966;DHT22;8599;47.852;12.070;2023-04-16T01:03:36;6.60;99.90
16966;DHT22;8599;47.852;12.070;2023-04-16T01:06:04;6.50;99.90
16966;DHT22;8599;47.852;12.070;2023-04-16T01:08:33;6.60;99.90
16966;DHT22;8599;47.852;12.070;2023-04-16T01:11:00;6.60;99.90
16966;DHT22;8599;47.852;12.070;2023-04-16T01:13:27;6.70;99.90
16966;DHT22;8599;47.852;12.070;2023-04-16T01:15:54;6.70;99.90
16966;DHT22;8599;47.852;12.070;2023-04-16T01:18:22;6.70;99.90
16966;DHT22;8599;47.852;12.070;2023-04-16T01:20:50;6.60;99.90
16966;DHT22;8599;47.852;12.070;2023-04-16T01:23:17;6.60;99.90
16966;DHT22;8599;47.852;12.070;2023-04-16T01:25:44;6.70;99.90
16966;DHT22;8599;47.852;12.070;2023-04-16T01:28:11;6.60;99.90
16966;DHT22;8599;47.852;12.070;2023-04-16T01:30:38;6.50;99.90
16966;DHT22;8599;47.852;12.070;2023-04-16T01:33:05;6.60;99.90
16966;DHT22;8599;47.852;12.070;2023-04-16T01:35:32;6.60;99.90
16966;DHT22;8599;47.852;12.070;2023-04-16T01:38:00;6.50;99.90
16966;DHT22;8599;47.852;12.070;2023-04-16T01:40:27;6.50;99.90
16966;DHT22;8599;47.852;12.070;2023-04-16T01:42:55;6.50;99.90
16966;DHT22;8599;47.852;12.070;2023-04-16T01:45:21;6.50;99.90
16966;DHT22;8599;47.852;12.070;2023-04-16T01:47:48;6.50;99.90
16966;DHT22;8599;47.852;12.070;2023-04-16T01:50:15;6.40;99.90
16966;DHT22;8599;47.852;12.070;2023-04-16T01:52:43;6.60;99.90
16966;DHT22;8599;47.852;12.070;2023-04-16T01:55:11;6.60;99.90
16966;DHT22;8599;47.852;12.070;2023-04-16T01:57:38;6.60;99.90
16966;DHT22;8599;47.852;12.070;2023-04-16T02:00:06;6.60;99.90
16966;DHT22;8599;47.852;12.070;2023-04-16T02:02:35;6.50;99.90
16966;DHT22;8599;47.852;12.070;2023-04-16T02:05:02;6.50;99.90
16966;DHT22;8599;47.852;12.070;2023-04-16T02:07:29;6.50;99.90
16966;DHT22;8599;47.852;12.070;2023-04-16T02:09:57;6.50;99.90
16966;DHT22;8599;47.852;12.070;2023-04-16T02:12:25;6.60;99.90
16966;DHT22;8599;47.852;12.070;2023-04-16T02:14:52;6.50;99.90
16966;DHT22;8599;47.852;12.070;2023-04-16T02:17:18;6.40;99.90
16966;DHT22;8599;47.852;12.070;2023-04-16T02:19:45;6.30;99.90
16966;DHT22;8599;47.852;12.070;2023-04-16T02:22:12;6.30;99.90
16966;DHT22;8599;47.852;12.070;2023-04-16T02:24:39;6.40;99.90
16966;DHT22;8599;47.852;12.070;2023-04-16T02:27:06;6.40;99.90
16966;DHT22;8599;47.852;12.070;2023-04-16T02:29:34;6.40;99.90
16966;DHT22;8599;47.852;12.070;2023-04-16T02:32:01;6.40;99.90
16966;DHT22;8599;47.852;12.070;2023-04-16T02:34:28;6.40;99.90
16966;DHT22;8599;47.852;12.070;2023-04-16T02:36:55;6.60;99.90
16966;DHT22;8599;47.852;12.070;2023-04-16T02:39:22;6.60;99.90
16966;DHT22;8599;47.852;12.070;2023-04-16T02:41:49;6.70;99.90
16966;DHT22;8599;47.852;12.070;2023-04-16T02:44:16;6.60;99.90
16966;DHT22;8599;47.852;12.070;2023-04-16T02:46:45;6.60;99.90
16966;DHT22;8599;47.852;12.070;2023-04-16T02:49:11;6.50;99.90
16966;DHT22;8599;47.852;12.070;2023-04-16T02:51:38;6.50;99.90
16966;DHT22;8599;47.852;12.070;2023-04-16T02:54:05;6.60;99.90
16966;DHT22;8599;47.852;12.070;2023-04-16T02:56:32;6.50;99.90
16966;DHT22;8599;47.852;12.070;2023-04-16T02:58:59;6.60;99.90
16966;DHT22;8599;47.852;12.070;2023-04-16T03:01:25;6.50;99.90
16966;DHT22;8599;47.852;12.070;2023-04-16T03:03:54;6.40;99.90
16966;DHT22;8599;47.852;12.070;2023-04-16T03:06:21;6.50;99.90
16966;DHT22;8599;47.852;12.070;2023-04-16T03:08:48;6.50;99.90
16966;DHT22;8599;47.852;12.070;2023-04-16T03:11:14;6.40;99.90
16966;DHT22;8599;47.852;12.070;2023-04-16T03:13:42;6.40;99.90
16966;DHT22;8599;47.852;12.070;2023-04-16T03:16:09;6.40;99.90
16966;DHT22;8599;47.852;12.070;2023-04-16T03:18:36;6.40;99.90
16966;DHT22;8599;47.852;12.070;2023-04-16T03:21:04;6.40;99.90
16966;DHT22;8599;47.852;12.070;2023-04-16T03:23:31;6.40;99.90
16966;DHT22;8599;47.852;12.070;2023-04-16T03:25:58;6.40;99.90
16966;DHT22;8599;47.852;12.070;2023-04-16T03:28:25;6.30;99.90
16966;DHT22;8599;47.852;12.070;2023-04-16T03:30:52;6.40;99.90
16966;DHT22;8599;47.852;12.070;2023-04-16T03:33:19;6.30;99.90
16966;DHT22;8599;47.852;12.070;2023-04-16T03:35:46;6.40;99.90
16966;DHT22;8599;47.852;12.070;2023-04-16T03:38:14;6.50;99.90
16966;DHT22;8599;47.852;12.070;2023-04-16T03:40:40;6.60;99.90
16966;DHT22;8599;47.852;12.070;2023-04-16T03:43:07;6.60;99.90
16966;DHT22;8599;47.852;12.070;2023-04-16T03:45:34;6.60;99.90
16966;DHT22;8599;47.852;12.070;2023-04-16T03:48:01;6.60;99.90
16966;DHT22;8599;47.852;12.070;2023-04-16T03:50:27;6.60;99.90
16966;DHT22;8599;47.852;12.070;2023-04-16T03:52:54;6.50;99.90
16966;DHT22;8599;47.852;12.070;2023-04-16T03:55:22;6.40;99.90
16966;DHT22;8599;47.852;12.070;2023-04-16T03:57:49;6.40;99.90
16966;DHT22;8599;47.852;12.070;2023-04-16T04:00:16;6.60;99.90
16966;DHT22;8599;47.852;12.070;2023-04-16T04:02:43;6.60;99.90
16966;DHT22;8599;47.852;12.070;2023-04-16T04:05:10;6.60;99.90
16966;DHT22;8599;47.852;12.070;2023-04-16T04:07:36;6.60;99.90
16966;DHT22;8599;47.852;12.070;2023-04-16T04:10:04;6.50;99.90
16966;DHT22;8599;47.852;12.070;2023-04-16T04:12:32;6.50;99.90
16966;DHT22;8599;47.852;12.070;2023-04-16T04:14:59;6.60;99.90
16966;DHT22;8599;47.852;12.070;2023-04-16T04:17:26;6.50;99.90
16966;DHT22;8599;47.852;12.070;2023-04-16T04:19:52;6.40;99.90
16966;DHT22;8599;47.852;12.070;2023-04-16T04:22:19;6.40;99.90
16966;DHT22;8599;47.852;12.070;2023-04-16T04:24:46;6.40;99.90
16966;DHT22;8599;47.852;12.070;2023-04-16T04:27:13;6.50;99.90
16966;DHT22;8599;47.852;12.070;2023-04-16T04:29:41;6.60;99.90
16966;DHT22;8599;47.852;12.070;2023-04-16T04:32:07;6.60;99.90
16966;DHT22;8599;47.852;12.070;2023-04-16T04:34:34;6.60;99.90
16966;DHT22;8599;47.852;12.070;2023-04-16T04:37:01;6.50;99.90
16966;DHT22;8599;47.852;12.070;2023-04-16T04:39:28;6.40;99.90
16966;DHT22;8599;47.852;12.070;2023-04-16T04:41:56;6.50;99.90
16966;DHT22;8599;47.852;12.070;2023-04-16T04:44:23;6.50;99.90
16966;DHT22;8599;47.852;12.070;2023-04-16T04:46:51;6.40;99.90
16966;DHT22;8599;47.852;12.070;2023-04-16T04:49:18;6.50;99.90
16966;DHT22;8599;47.852;12.070;2023-04-16T04:51:44;6.50;99.90
16966;DHT22;8599;47.852;12.070;2023-04-16T04:54:11;6.50;99.90
16966;DHT22;8599;47.852;12.070;2023-04-16T04:56:38;6.50;99.90
16966;DHT22;8599;47.852;12.070;2023-04-16T04:59:05;6.50;99.90
16966;DHT22;8599;47.852;12.070;2023-04-16T05:01:32;6.50;99.90
16966;DHT22;8599;47.852;12.070;2023-04-16T05:04:00;6.50;99.90
16966;DHT22;8599;47.852;12.070;2023-04-16T05:06:26;6.40;99.90
16966;DHT22;8599;47.852;12.070;2023-04-16T05:08:53;6.40;99.90
16966;DHT22;8599;47.852;12.070;2023-04-16T05:11:20;6.40;99.90
16966;DHT22;8599;47.852;12.070;2023-04-16T05:13:47;6.50;99.90
16966;DHT22;8599;47.852;12.070;2023-04-16T05:16:14;6.60;99.90
16966;DHT22;8599;47.852;12.070;2023-04-16T05:18:41;6.50;99.90
16966;DHT22;8599;47.852;12.070;2023-04-16T05:21:09;6.50;99.90
16966;DHT22;8599;47.852;12.070;2023-04-16T05:23:35;6.60;99.90
16966;DHT22;8599;47.852;12.070;2023-04-16T05:26:02;6.60;99.90
16966;DHT22;8599;47.852;12.070;2023-04-16T05:28:29;6.60;99.90
16966;DHT22;8599;47.852;12.070;2023-04-16T05:30:56;6.70;99.90
16966;DHT22;8599;47.852;12.070;2023-04-16T05:33:23;6.70;99.90
16966;DHT22;8599;47.852;12.070;2023-04-16T05:35:50;6.60;99.90
16966;DHT22;8599;47.852;12.070;2023-04-16T05:38:18;6.60;99.90
16966;DHT22;8599;47.852;12.070;2023-04-16T05:40:45;6.70;99.90
16966;DHT22;8599;47.852;12.070;2023-04-16T05:43:11;6.70;99.90
16966;DHT22;8599;47.852;12.070;2023-04-16T05:45:38;6.70;99.90
16966;DHT22;8599;47.852;12.070;2023-04-16T05:48:06;6.60;99.90
16966;DHT22;8599;47.852;12.070;2023-04-16T05:50:33;6.60;99.90
16966;DHT22;8599;47.852;12.070;2023-04-16T05:53:01;6.80;99.90
16966;DHT22;8599;47.852;12.070;2023-04-16T05:55:29;6.90;99.90
16966;DHT22;8599;47.852;12.070;2023-04-16T05:57:56;7.00;99.90
16966;DHT22;8599;47.852;12.070;2023-04-16T06:00:23;7.00;99.90
16966;DHT22;8599;47.852;12.070;2023-04-16T06:02:50;7.00;99.90
16966;DHT22;8599;47.852;12.070;2023-04-16T06:05:17;7.00;99.90
16966;DHT22;8599;47.852;12.070;2023-04-16T06:07:44;7.10;99.90
16966;DHT22;8599;47.852;12.070;2023-04-16T06:10:11;7.00;99.90
16966;DHT22;8599;47.852;12.070;2023-04-16T06:12:39;7.10;99.90
16966;DHT22;8599;47.852;12.070;2023-04-16T06:15:07;7.00;99.90
16966;DHT22;8599;47.852;12.070;2023-04-16T06:17:34;7.10;99.90
16966;DHT22;8599;47.852;12.070;2023-04-16T06:20:01;7.10;99.90
16966;DHT22;8599;47.852;12.070;2023-04-16T06:22:28;7.10;99.90
16966;DHT22;8599;47.852;12.070;2023-04-16T06:24:55;7.00;99.90
16966;DHT22;8599;47.852;12.070;2023-04-16T06:27:21;7.20;99.90
16966;DHT22;8599;47.852;12.070;2023-04-16T06:29:49;7.20;99.90
16966;DHT22;8599;47.852;12.070;2023-04-16T06:32:16;7.10;99.90
16966;DHT22;8599;47.852;12.070;2023-04-16T06:34:43;7.10;99.90
16966;DHT22;8599;47.852;12.070;2023-04-16T06:37:10;7.10;99.90
16966;DHT22;8599;47.852;12.070;2023-04-16T06:39:37;7.10;99.90
16966;DHT22;8599;47.852;12.070;2023-04-16T06:42:04;7.00;99.90
16966;DHT22;8599;47.852;12.070;2023-04-16T06:44:30;7.10;99.90
16966;DHT22;8599;47.852;12.070;2023-04-16T06:47:06;7.00;99.90
16966;DHT22;8599;47.852;12.070;2023-04-16T06:49:33;7.10;99.90
16966;DHT22;8599;47.852;12.070;2023-04-16T06:52:00;7.00;99.90
16966;DHT22;8599;47.852;12.070;2023-04-16T06:54:27;7.10;99.90
16966;DHT22;8599;47.852;12.070;2023-04-16T06:56:56;7.00;99.90
16966;DHT22;8599;47.852;12.070;2023-04-16T06:59:22;6.90;99.90
16966;DHT22;8599;47.852;12.070;2023-04-16T07:01:50;7.10;99.90
16966;DHT22;8599;47.852;12.070;2023-04-16T07:04:18;7.10;99.90
16966;DHT22;8599;47.852;12.070;2023-04-16T07:06:45;7.20;99.90
16966;DHT22;8599;47.852;12.070;2023-04-16T07:09:12;7.10;99.90
16966;DHT22;8599;47.852;12.070;2023-04-16T07:11:39;7.20;99.90
16966;DHT22;8599;47.852;12.070;2023-04-16T07:14:06;7.30;99.90
16966;DHT22;8599;47.852;12.070;2023-04-16T07:16:33;7.30;99.90
16966;DHT22;8599;47.852;12.070;2023-04-16T07:19:02;7.40;99.90
16966;DHT22;8599;47.852;12.070;2023-04-16T07:21:30;7.30;99.90
16966;DHT22;8599;47.852;12.070;2023-04-16T07:23:57;7.20;99.90
16966;DHT22;8599;47.852;12.070;2023-04-16T07:26:23;7.30;99.90
16966;DHT22;8599;47.852;12.070;2023-04-16T07:28:50;7.30;99.90
16966;DHT22;8599;47.852;12.070;2023-04-16T07:31:17;7.30;99.90
16966;DHT22;8599;47.852;12.070;2023-04-16T07:33:44;7.40;99.90
16966;DHT22;8599;47.852;12.070;2023-04-16T07:36:11;7.40;99.90
16966;DHT22;8599;47.852;12.070;2023-04-16T07:38:39;7.50;99.90
16966;DHT22;8599;47.852;12.070;2023-04-16T07:41:07;7.60;99.90
16966;DHT22;8599;47.852;12.070;2023-04-16T07:43:33;7.70;99.90
16966;DHT22;8599;47.852;12.070;2023-04-16T07:46:00;7.80;99.90
16966;DHT22;8599;47.852;12.070;2023-04-16T07:48:27;7.80;99.90
16966;DHT22;8599;47.852;12.070;2023-04-16T07:50:54;7.80;99.90
16966;DHT22;8599;47.852;12.070;2023-04-16T07:53:21;7.80;99.90
16966;DHT22;8599;47.852;12.070;2023-04-16T07:55:49;7.90;99.90
16966;DHT22;8599;47.852;12.070;2023-04-16T07:58:16;7.90;99.90
16966;DHT22;8599;47.852;12.070;2023-04-16T08:00:43;8.00;99.90
16966;DHT22;8599;47.852;12.070;2023-04-16T08:03:10;8.00;99.90
16966;DHT22;8599;47.852;12.070;2023-04-16T08:05:36;8.10;99.90
16966;DHT22;8599;47.852;12.070;2023-04-16T08:08:03;8.00;99.90
16966;DHT22;8599;47.852;12.070;2023-04-16T08:10:30;8.00;99.90
16966;DHT22;8599;47.852;12.070;2023-04-16T08:12:59;8.00;99.90
16966;DHT22;8599;47.852;12.070;2023-04-16T08:15:26;8.00;99.90
16966;DHT22;8599;47.852;12.070;2023-04-16T08:17:52;8.20;99.90
16966;DHT22;8599;47.852;12.070;2023-04-16T08:20:20;8.20;99.90
16966;DHT22;8599;47.852;12.070;2023-04-16T08:22:47;8.30;99.90
16966;DHT22;8599;47.852;12.070;2023-04-16T08:25:14;8.30;99.90
16966;DHT22;8599;47.852;12.070;2023-04-16T08:27:41;8.40;99.90
16966;DHT22;8599;47.852;12.070;2023-04-16T08:30:09;8.20;99.90
16966;DHT22;8599;47.852;12.070;2023-04-16T08:32:36;8.40;99.90
16966;DHT22;8599;47.852;12.070;2023-04-16T08:35:04;8.40;99.90
16966;DHT22;8599;47.852;12.070;2023-04-16T08:37:30;8.50;99.90
16966;DHT22;8599;47.852;12.070;2023-04-16T08:39:57;8.60;99.90
16966;DHT22;8599;47.852;12.070;2023-04-16T08:42:29;8.60;99.90
16966;DHT22;8599;47.852;12.070;2023-04-16T08:45:05;8.50;99.90
16966;DHT22;8599;47.852;12.070;2023-04-16T08:47:35;8.60;99.90
16966;DHT22;8599;47.852;12.070;2023-04-16T08:50:03;8.70;99.90
16966;DHT22;8599;47.852;12.070;2023-04-16T08:52:31;8.80;99.90
16966;DHT22;8599;47.852;12.070;2023-04-16T08:55:03;8.90;99.90
16966;DHT22;8599;47.852;12.070;2023-04-16T08:57:37;8.90;99.90
16966;DHT22;8599;47.852;12.070;2023-04-16T09:00:06;8.70;99.90
16966;DHT22;8599;47.852;12.070;2023-04-16T09:02:36;8.80;99.90
16966;DHT22;8599;47.852;12.070;2023-04-16T09:05:05;8.80;99.90
16966;DHT22;8599;47.852;12.070;2023-04-16T09:07:33;9.00;99.90
16966;DHT22;8599;47.852;12.070;2023-04-16T09:10:00;9.00;99.90
16966;DHT22;8599;47.852;12.070;2023-04-16T09:12:27;9.10;99.90
16966;DHT22;8599;47.852;12.070;2023-04-16T09:14:55;9.20;99.90
16966;DHT22;8599;47.852;12.070;2023-04-16T09:17:24;9.10;99.90
16966;DHT22;8599;47.852;12.070;2023-04-16T09:19:53;9.20;99.90
16966;DHT22;8599;47.852;12.070;2023-04-16T09:22:20;9.40;99.90
16966;DHT22;8599;47.852;12.070;2023-04-16T09:24:47;9.50;99.90
16966;DHT22;8599;47.852;12.070;2023-04-16T09:27:13;9.20;99.90
16966;DHT22;8599;47.852;12.070;2023-04-16T09:29:41;9.20;99.90
16966;DHT22;8599;47.852;12.070;2023-04-16T09:32:09;9.10;99.90
16966;DHT22;8599;47.852;12.070;2023-04-16T09:34:55;9.20;99.90
16966;DHT22;8599;47.852;12.070;2023-04-16T09:37:23;9.30;99.90
16966;DHT22;8599;47.852;12.070;2023-04-16T09:39:55;9.30;99.90
16966;DHT22;8599;47.852;12.070;2023-04-16T09:42:24;9.30;99.90
16966;DHT22;8599;47.852;12.070;2023-04-16T09:44:52;9.40;99.90
16966;DHT22;8599;47.852;12.070;2023-04-16T09:47:19;9.40;99.90
16966;DHT22;8599;47.852;12.070;2023-04-16T09:49:47;9.50;99.90
16966;DHT22;8599;47.852;12.070;2023-04-16T09:52:16;9.70;99.90
16966;DHT22;8599;47.852;12.070;2023-04-16T09:54:47;9.90;99.90
16966;DHT22;8599;47.852;12.070;2023-04-16T09:57:18;9.80;99.90
16966;DHT22;8599;47.852;12.070;2023-04-16T09:59:46;9.90;99.90
16966;DHT22;8599;47.852;12.070;2023-04-16T10:02:13;9.90;99.90
16966;DHT22;8599;47.852;12.070;2023-04-16T10:04:47;9.90;99.90
16966;DHT22;8599;47.852;12.070;2023-04-16T10:07:16;9.80;99.90
16966;DHT22;8599;47.852;12.070;2023-04-16T10:09:45;10.00;99.90
16966;DHT22;8599;47.852;12.070;2023-04-16T10:12:13;10.10;99.90
16966;DHT22;8599;47.852;12.070;2023-04-16T10:14:41;10.10;99.90
16966;DHT22;8599;47.852;12.070;2023-04-16T10:17:08;10.10;99.90
16966;DHT22;8599;47.852;12.070;2023-04-16T10:19:35;10.30;99.90
16966;DHT22;8599;47.852;12.070;2023-04-16T10:22:02;10.30;99.90
16966;DHT22;8599;47.852;12.070;2023-04-16T10:24:32;10.30;99.90
16966;DHT22;8599;47.852;12.070;2023-04-16T10:27:00;10.50;99.90
16966;DHT22;8599;47.852;12.070;2023-04-16T10:29:28;10.40;99.90
16966;DHT22;8599;47.852;12.070;2023-04-16T10:31:56;10.20;99.90
16966;DHT22;8599;47.852;12.070;2023-04-16T10:34:24;10.40;99.90
16966;DHT22;8599;47.852;12.070;2023-04-16T10:36:52;10.60;99.90
16966;DHT22;8599;47.852;12.070;2023-04-16T10:39:21;10.60;99.90
16966;DHT22;8599;47.852;12.070;2023-04-16T10:41:50;10.60;99.90
16966;DHT22;8599;47.852;12.070;2023-04-16T10:44:18;10.50;99.90
16966;DHT22;8599;47.852;12.070;2023-04-16T10:46:46;10.70;99.90
16966;DHT22;8599;47.852;12.070;2023-04-16T10:49:15;10.80;99.90
16966;DHT22;8599;47.852;12.070;2023-04-16T10:51:52;10.90;99.90
16966;DHT22;8599;47.852;12.070;2023-04-16T10:54:21;10.80;99.90
16966;DHT22;8599;47.852;12.070;2023-04-16T10:56:50;10.80;99.90
16966;DHT22;8599;47.852;12.070;2023-04-16T10:59:18;10.80;99.90
16966;DHT22;8599;47.852;12.070;2023-04-16T11:01:46;11.00;99.90
16966;DHT22;8599;47.852;12.070;2023-04-16T11:04:28;11.10;99.90
16966;DHT22;8599;47.852;12.070;2023-04-16T11:07:06;11.30;99.90
16966;DHT22;8599;47.852;12.070;2023-04-16T11:09:57;11.30;99.90
16966;DHT22;8599;47.852;12.070;2023-04-16T11:12:32;11.40;99.90
16966;DHT22;8599;47.852;12.070;2023-04-16T11:15:00;11.40;99.90
16966;DHT22;8599;47.852;12.070;2023-04-16T11:17:29;11.50;99.90
16966;DHT22;8599;47.852;12.070;2023-04-16T11:19:56;11.30;99.90
16966;DHT22;8599;47.852;12.070;2023-04-16T11:22:23;11.20;99.90
16966;DHT22;8599;47.852;12.070;2023-04-16T11:24:53;11.30;99.90
16966;DHT22;8599;47.852;12.070;2023-04-16T11:27:20;11.40;99.90
16966;DHT22;8599;47.852;12.070;2023-04-16T11:29:57;11.40;99.90
16966;DHT22;8599;47.852;12.070;2023-04-16T11:32:24;11.00;99.90
16966;DHT22;8599;47.852;12.070;2023-04-16T11:34:51;11.10;99.90
16966;DHT22;8599;47.852;12.070;2023-04-16T11:37:20;11.10;99.90
16966;DHT22;8599;47.852;12.070;2023-04-16T11:39:51;11.00;99.90
16966;DHT22;8599;47.852;12.070;2023-04-16T11:42:19;11.10;99.90
16966;DHT22;8599;47.852;12.070;2023-04-16T11:44:51;11.10;99.90
16966;DHT22;8599;47.852;12.070;2023-04-16T11:47:20;11.20;99.90
16966;DHT22;8599;47.852;12.070;2023-04-16T11:49:47;11.40;99.90
16966;DHT22;8599;47.852;12.070;2023-04-16T11:52:24;11.50;99.90
16966;DHT22;8599;47.852;12.070;2023-04-16T11:54:52;11.30;99.90
16966;DHT22;8599;47.852;12.070;2023-04-16T11:57:26;11.20;99.90
16966;DHT22;8599;47.852;12.070;2023-04-16T11:59:53;11.40;99.90
16966;DHT22;8599;47.852;12.070;2023-04-16T12:02:37;11.40;99.90
16966;DHT22;8599;47.852;12.070;2023-04-16T12:05:05;11.40;99.90
16966;DHT22;8599;47.852;12.070;2023-04-16T12:07:42;11.50;99.90
16966;DHT22;8599;47.852;12.070;2023-04-16T12:10:10;11.80;99.90
16966;DHT22;8599;47.852;12.070;2023-04-16T12:12:37;12.10;99.90
16966;DHT22;8599;47.852;12.070;2023-04-16T12:15:04;12.30;99.90
16966;DHT22;8599;47.852;12.070;2023-04-16T12:17:32;12.60;99.90
16966;DHT22;8599;47.852;12.070;2023-04-16T12:20:02;12.60;99.90
16966;DHT22;8599;47.852;12.070;2023-04-16T12:22:33;12.40;99.90
16966;DHT22;8599;47.852;12.070;2023-04-16T12:25:01;12.50;99.90
16966;DHT22;8599;47.852;12.070;2023-04-16T12:27:44;12.60;99.90
16966;DHT22;8599;47.852;12.070;2023-04-16T12:30:13;12.60;99.90
16966;DHT22;8599;47.852;12.070;2023-04-16T12:32:40;12.30;99.90
16966;DHT22;8599;47.852;12.070;2023-04-16T12:35:09;12.20;99.90
16966;DHT22;8599;47.852;12.070;2023-04-16T12:37:37;12.20;99.90
16966;DHT22;8599;47.852;12.070;2023-04-16T12:40:05;12.20;99.90
16966;DHT22;8599;47.852;12.070;2023-04-16T12:42:33;12.20;99.90
16966;DHT22;8599;47.852;12.070;2023-04-16T12:45:01;11.80;99.90
16966;DHT22;8599;47.852;12.070;2023-04-16T12:47:29;11.60;99.90
16966;DHT22;8599;47.852;12.070;2023-04-16T12:49:56;11.50;99.90
16966;DHT22;8599;47.852;12.070;2023-04-16T12:52:24;11.40;99.90
16966;DHT22;8599;47.852;12.070;2023-04-16T12:54:51;11.60;99.90
16966;DHT22;8599;47.852;12.070;2023-04-16T12:57:18;11.70;99.90
16966;DHT22;8599;47.852;12.070;2023-04-16T12:59:45;12.00;99.90
16966;DHT22;8599;47.852;12.070;2023-04-16T13:02:12;12.10;99.90
16966;DHT22;8599;47.852;12.070;2023-04-16T13:04:39;12.20;99.90
16966;DHT22;8599;47.852;12.070;2023-04-16T13:07:06;12.30;99.90
16966;DHT22;8599;47.852;12.070;2023-04-16T13:09:34;12.20;99.90
16966;DHT22;8599;47.852;12.070;2023-04-16T13:12:01;12.00;99.90
16966;DHT22;8599;47.852;12.070;2023-04-16T13:14:28;12.00;99.90
16966;DHT22;8599;47.852;12.070;2023-04-16T13:16:54;11.70;99.90
16966;DHT22;8599;47.852;12.070;2023-04-16T13:19:21;11.60;99.90
16966;DHT22;8599;47.852;12.070;2023-04-16T13:21:48;11.60;99.90
16966;DHT22;8599;47.852;12.070;2023-04-16T13:24:15;11.60;99.90
16966;DHT22;8599;47.852;12.070;2023-04-16T13:26:43;11.60;99.90
16966;DHT22;8599;47.852;12.070;2023-04-16T13:29:10;11.30;99.90
16966;DHT22;8599;47.852;12.070;2023-04-16T13:31:37;11.20;99.90
16966;DHT22;8599;47.852;12.070;2023-04-16T13:34:04;11.10;99.90
16966;DHT22;8599;47.852;12.070;2023-04-16T13:36:31;11.10;99.90
16966;DHT22;8599;47.852;12.070;2023-04-16T13:38:58;11.20;99.90
16966;DHT22;8599;47.852;12.070;2023-04-16T13:41:25;11.40;99.90
16966;DHT22;8599;47.852;12.070;2023-04-16T13:43:54;11.60;99.90
16966;DHT22;8599;47.852;12.070;2023-04-16T13:46:21;11.70;99.90
16966;DHT22;8599;47.852;12.070;2023-04-16T13:48:47;11.70;99.90
16966;DHT22;8599;47.852;12.070;2023-04-16T13:51:14;11.60;99.90
16966;DHT22;8599;47.852;12.070;2023-04-16T13:53:41;11.30;99.90
16966;DHT22;8599;47.852;12.070;2023-04-16T13:56:09;11.20;99.90
16966;DHT22;8599;47.852;12.070;2023-04-16T13:58:36;11.10;99.90
16966;DHT22;8599;47.852;12.070;2023-04-16T14:01:04;10.90;99.90
16966;DHT22;8599;47.852;12.070;2023-04-16T14:03:31;10.90;99.90
16966;DHT22;8599;47.852;12.070;2023-04-16T14:06:00;10.90;99.90
16966;DHT22;8599;47.852;12.070;2023-04-16T14:08:27;10.90;99.90
16966;DHT22;8599;47.852;12.070;2023-04-16T14:10:54;10.90;99.90
16966;DHT22;8599;47.852;12.070;2023-04-16T14:13:21;10.90;99.90
16966;DHT22;8599;47.852;12.070;2023-04-16T14:15:48;10.90;99.90
16966;DHT22;8599;47.852;12.070;2023-04-16T14:18:17;10.80;99.90
16966;DHT22;8599;47.852;12.070;2023-04-16T14:20:43;10.90;99.90
16966;DHT22;8599;47.852;12.070;2023-04-16T14:23:10;11.00;99.90
16966;DHT22;8599;47.852;12.070;2023-04-16T14:25:37;11.10;99.90
16966;DHT22;8599;47.852;12.070;2023-04-16T14:28:04;11.20;99.90
16966;DHT22;8599;47.852;12.070;2023-04-16T14:30:31;11.20;99.90
16966;DHT22;8599;47.852;12.070;2023-04-16T14:32:58;11.50;99.90
16966;DHT22;8599;47.852;12.070;2023-04-16T14:35:26;11.30;99.90
16966;DHT22;8599;47.852;12.070;2023-04-16T14:37:53;11.40;99.90
16966;DHT22;8599;47.852;12.070;2023-04-16T14:40:19;11.30;99.90
16966;DHT22;8599;47.852;12.070;2023-04-16T14:42:46;11.20;99.90
16966;DHT22;8599;47.852;12.070;2023-04-16T14:45:13;11.10;99.90
16966;DHT22;8599;47.852;12.070;2023-04-16T14:47:40;11.20;99.90
16966;DHT22;8599;47.852;12.070;2023-04-16T14:50:12;11.10;99.90
16966;DHT22;8599;47.852;12.070;2023-04-16T14:52:40;10.90;99.90
16966;DHT22;8599;47.852;12.070;2023-04-16T14:55:07;11.50;99.90
16966;DHT22;8599;47.852;12.070;2023-04-16T14:57:34;12.60;99.90
16966;DHT22;8599;47.852;12.070;2023-04-16T15:00:03;13.10;99.90
16966;DHT22;8599;47.852;12.070;2023-04-16T15:02:34;13.70;99.90
16966;DHT22;8599;47.852;12.070;2023-04-16T15:05:01;14.30;99.90
16966;DHT22;8599;47.852;12.070;2023-04-16T15:07:28;14.20;99.90
16966;DHT22;8599;47.852;12.070;2023-04-16T15:09:57;14.00;99.90
16966;DHT22;8599;47.852;12.070;2023-04-16T15:12:24;13.80;99.90
16966;DHT22;8599;47.852;12.070;2023-04-16T15:14:51;14.00;99.90
16966;DHT22;8599;47.852;12.070;2023-04-16T15:17:18;14.30;99.90
16966;DHT22;8599;47.852;12.070;2023-04-16T15:19:45;14.10;99.90
16966;DHT22;8599;47.852;12.070;2023-04-16T15:22:12;14.30;99.90
16966;DHT22;8599;47.852;12.070;2023-04-16T15:24:39;14.00;99.90
16966;DHT22;8599;47.852;12.070;2023-04-16T15:27:07;13.90;99.90
16966;DHT22;8599;47.852;12.070;2023-04-16T15:29:34;13.80;99.90
16966;DHT22;8599;47.852;12.070;2023-04-16T15:32:01;13.70;99.90
16966;DHT22;8599;47.852;12.070;2023-04-16T15:34:27;13.30;99.90
16966;DHT22;8599;47.852;12.070;2023-04-16T15:36:54;12.80;99.90
16966;DHT22;8599;47.852;12.070;2023-04-16T15:39:21;12.80;99.90
16966;DHT22;8599;47.852;12.070;2023-04-16T15:41:48;12.50;99.90
16966;DHT22;8599;47.852;12.070;2023-04-16T15:44:16;12.60;99.90